Terminal Aerodrome Forecast
Issued by NWS Green Bay, WI

Home | Current Version | Previous Version | Graphics & Text | Print | Product List | Glossary On
Versions: 1 2 3 4 5 6 7 8 9 10 11 12 13 14 15 16 17 18 19 20 21 22 23
000
FTUS43 KGRB 132320
TAFGRB
TAF
KGRB 132320Z 1400/1424 25004KT P6SM SKC
     FM140500 00000KT P6SM SCT250
     FM141100 15003KT P6SM BKN250
     FM141600 15007KT P6SM -SN BKN025 BKN100
     FM142100 15008KT P6SM -SN BKN020 OVC040=

USA.gov is the U.S. government's official web portal to all federal, state and local government web resources and services.